Time;durP1;ratioP1;P1;durP2;ratioP2;P2;SDS_P1;SDS_P2;PMS_P1;PMS_P2;Temp;Humidity;BMP_temperature;BMP_pressure;BME280_temperature;BME280_humidity;BME280_pressure;Samples;Min_cycle;Max_cycle;Signal;HPM_P1;HPM_P2
2022/04/28 00:01:55;;;;;;;3.00;2.50;;;9.00;99.90;;;;;;5094696;28;20176;-60
2022/04/28 00:04:21;;;;;;;2.67;2.30;;;9.00;99.90;;;;;;5094588;28;20196;-60
2022/04/28 00:06:47;;;;;;;3.53;2.22;;;8.90;99.90;;;;;;5094807;28;20296;-61
2022/04/28 00:09:12;;;;;;;3.58;2.50;;;8.90;99.90;;;;;;5093584;28;20691;-60
2022/04/28 00:11:38;;;;;;;2.58;2.00;;;8.90;99.90;;;;;;5094706;28;20209;-60
2022/04/28 00:14:07;;;;;;;3.35;2.80;;;8.90;99.90;;;;;;5094530;28;20170;-60
2022/04/28 00:16:37;;;;;;;3.28;2.50;;;8.90;99.90;;;;;;5094377;28;20555;-60
2022/04/28 00:19:03;;;;;;;3.15;2.53;;;8.80;99.90;;;;;;5094148;28;20646;-60
2022/04/28 00:21:29;;;;;;;2.90;2.25;;;8.80;99.90;;;;;;5094544;28;20174;-60
2022/04/28 00:23:55;;;;;;;3.22;2.20;;;8.80;99.90;;;;;;5094498;28;20543;-60
2022/04/28 00:26:20;;;;;;;2.28;2.08;;;8.80;99.90;;;;;;5094153;28;20202;-60
2022/04/28 00:28:47;;;;;;;3.80;2.15;;;8.80;99.90;;;;;;5094264;28;20800;-60
2022/04/28 00:31:13;;;;;;;3.50;2.38;;;8.70;99.90;;;;;;5109890;28;20192;-61
2022/04/28 00:33:41;;;;;;;2.75;2.33;;;8.70;99.90;;;;;;5094298;28;20170;-60
2022/04/28 00:36:07;;;;;;;2.83;2.60;;;8.70;99.90;;;;;;5094351;28;20686;-60
2022/04/28 00:38:33;;;;;;;4.13;2.80;;;8.70;99.90;;;;;;5094151;28;20174;-60
2022/04/28 00:40:59;;;;;;;2.92;2.25;;;8.80;99.90;;;;;;5094050;28;20177;-60
2022/04/28 00:43:28;;;;;;;2.42;2.22;;;8.80;99.90;;;;;;5094105;28;20310;-60
2022/04/28 00:45:55;;;;;;;3.45;2.42;;;8.80;99.90;;;;;;5093825;28;20184;-60
2022/04/28 00:51:06;;;;;;;2.80;2.53;;;8.80;99.90;;;;;;5093877;28;20188;-60
2022/04/28 00:53:37;;;;;;;2.40;2.10;;;8.80;99.90;;;;;;5093868;28;20174;-60
2022/04/28 00:56:04;;;;;;;3.83;2.53;;;8.70;99.90;;;;;;5093677;28;20173;-60
2022/04/28 00:58:30;;;;;;;3.25;2.83;;;8.80;99.90;;;;;;5093969;28;21202;-60
2022/04/28 01:00:56;;;;;;;3.85;2.67;;;8.80;99.90;;;;;;5094121;28;20186;-60
2022/04/28 01:03:22;;;;;;;2.42;2.17;;;8.70;99.90;;;;;;5093786;28;20223;-60
2022/04/28 01:05:48;;;;;;;3.30;2.65;;;8.70;99.90;;;;;;5093611;28;20277;-60
2022/04/28 01:08:15;;;;;;;2.35;2.03;;;8.60;99.90;;;;;;5093544;28;20292;-60
2022/04/28 01:10:41;;;;;;;3.30;2.70;;;8.50;99.90;;;;;;5093459;28;20169;-60
2022/04/28 01:13:07;;;;;;;2.40;2.20;;;8.50;99.90;;;;;;5093491;28;20242;-60
2022/04/28 01:15:46;;;;;;;2.35;2.15;;;8.50;99.90;;;;;;5093439;28;20174;-60
2022/04/28 01:18:12;;;;;;;3.70;2.65;;;8.40;99.90;;;;;;5093648;28;20201;-60
2022/04/28 01:20:38;;;;;;;2.17;1.92;;;8.60;99.90;;;;;;5093482;28;20178;-60
2022/04/28 01:23:04;;;;;;;2.58;2.20;;;8.60;99.90;;;;;;5093461;28;20242;-60
2022/04/28 01:25:30;;;;;;;2.55;2.35;;;8.50;99.90;;;;;;5093349;28;20201;-60
2022/04/28 01:27:57;;;;;;;3.90;2.80;;;8.50;99.90;;;;;;5093301;28;20208;-60
2022/04/28 01:30:24;;;;;;;3.22;2.63;;;8.40;99.90;;;;;;5092938;28;20174;-61
2022/04/28 01:32:52;;;;;;;3.65;2.72;;;8.40;99.90;;;;;;5093627;28;20228;-60
2022/04/28 01:35:19;;;;;;;3.80;2.78;;;8.30;99.90;;;;;;5092143;28;20177;-60
2022/04/28 01:37:44;;;;;;;2.65;2.45;;;8.40;99.90;;;;;;5093241;28;20174;-60
2022/04/28 01:40:14;;;;;;;3.33;2.50;;;8.40;99.90;;;;;;5093140;28;20303;-60
2022/04/28 01:42:45;;;;;;;3.75;2.92;;;8.40;99.90;;;;;;5092211;28;20290;-60
2022/04/28 01:45:11;;;;;;;4.28;2.38;;;8.30;99.90;;;;;;5093173;28;20177;-60
2022/04/28 01:47:39;;;;;;;2.53;2.33;;;8.30;99.90;;;;;;5091825;28;20555;-60
2022/04/28 01:50:06;;;;;;;3.42;2.22;;;8.30;99.90;;;;;;5093218;28;20173;-60
2022/04/28 01:55:17;;;;;;;4.60;2.72;;;8.30;99.90;;;;;;5093458;28;20179;-60
2022/04/28 01:57:43;;;;;;;4.32;2.75;;;8.20;99.90;;;;;;5093074;28;20642;-60
2022/04/28 02:00:09;;;;;;;3.28;2.63;;;8.20;99.90;;;;;;5093092;28;20532;-61
2022/04/28 02:02:35;;;;;;;3.60;2.42;;;8.20;99.90;;;;;;5093100;28;20644;-60
2022/04/28 02:05:03;;;;;;;3.70;2.92;;;8.20;99.90;;;;;;5093082;28;20205;-60
2022/04/28 02:07:29;;;;;;;2.72;2.20;;;8.30;99.90;;;;;;5092998;28;20206;-60
2022/04/28 02:09:56;;;;;;;2.53;2.33;;;8.20;99.90;;;;;;5093147;28;20174;-60
2022/04/28 02:12:21;;;;;;;2.90;2.60;;;8.20;99.90;;;;;;5092827;28;20178;-60
2022/04/28 02:14:47;;;;;;;2.80;2.47;;;8.20;99.90;;;;;;5092848;28;20181;-60
2022/04/28 02:17:21;;;;;;;2.85;2.55;;;8.10;99.90;;;;;;5108911;28;20174;-60
2022/04/28 02:19:47;;;;;;;2.97;2.50;;;8.10;99.90;;;;;;5108779;28;20523;-60
2022/04/28 02:22:12;;;;;;;2.90;2.70;;;8.20;99.90;;;;;;5092956;28;20170;-60
2022/04/28 02:24:38;;;;;;;3.85;3.03;;;8.20;99.90;;;;;;5093148;28;20600;-60
2022/04/28 02:27:04;;;;;;;4.05;2.80;;;8.10;99.90;;;;;;5093286;28;20695;-61
2022/04/28 02:29:30;;;;;;;3.75;2.70;;;8.00;99.90;;;;;;5092758;28;20231;-60
2022/04/28 02:31:56;;;;;;;3.75;2.35;;;8.00;99.90;;;;;;5108463;28;20261;-60
2022/04/28 02:34:21;;;;;;;3.72;2.42;;;7.90;99.90;;;;;;5092710;28;20183;-61
2022/04/28 02:36:47;;;;;;;2.63;2.22;;;7.90;99.90;;;;;;5092917;28;20186;-60
2022/04/28 02:39:14;;;;;;;3.25;2.70;;;7.90;99.90;;;;;;5092879;28;20243;-60
2022/04/28 02:41:41;;;;;;;2.55;2.35;;;7.80;99.90;;;;;;5092961;28;20165;-60
2022/04/28 02:44:06;;;;;;;2.90;2.42;;;7.80;99.90;;;;;;5096401;28;20174;-60
2022/04/28 02:46:33;;;;;;;2.85;2.58;;;7.90;99.90;;;;;;5096229;28;20201;-60
2022/04/28 02:48:59;;;;;;;2.22;1.98;;;7.90;99.90;;;;;;5096163;28;20166;-60
2022/04/28 02:51:25;;;;;;;3.47;3.17;;;7.80;99.90;;;;;;5096308;28;20181;-60
2022/04/28 02:53:51;;;;;;;3.25;2.17;;;7.80;99.90;;;;;;5096326;28;20182;-60
2022/04/28 02:56:16;;;;;;;3.30;2.83;;;7.80;99.90;;;;;;5096058;28;20534;-60
2022/04/28 02:58:42;;;;;;;3.03;2.55;;;7.80;99.90;;;;;;5096011;28;20173;-60
2022/04/28 03:01:07;;;;;;;3.35;2.55;;;7.90;99.90;;;;;;5095908;28;20169;-60
2022/04/28 03:03:33;;;;;;;3.42;2.47;;;7.80;99.90;;;;;;5095991;28;20170;-60
2022/04/28 03:11:29;;;;;;;3.95;2.80;;;7.80;99.90;;;;;;5096025;28;20192;-60
2022/04/28 03:13:56;;;;;;;3.17;2.60;;;7.80;99.90;;;;;;5095967;28;20173;-60
2022/04/28 03:16:22;;;;;;;3.95;2.80;;;7.80;99.90;;;;;;5096004;28;20177;-60
2022/04/28 03:18:48;;;;;;;3.38;2.55;;;7.70;99.90;;;;;;5095702;28;20219;-60
2022/04/28 03:21:14;;;;;;;4.20;3.35;;;7.70;99.90;;;;;;5095888;28;20172;-61
2022/04/28 03:23:40;;;;;;;4.40;3.08;;;7.70;99.90;;;;;;5095541;28;20634;-60
2022/04/28 03:26:06;;;;;;;3.00;2.40;;;7.70;99.90;;;;;;5095441;28;20170;-60
2022/04/28 03:28:34;;;;;;;3.00;2.55;;;7.60;99.90;;;;;;5095298;28;20212;-60
2022/04/28 03:31:01;;;;;;;2.97;2.40;;;7.60;99.90;;;;;;5095524;28;20308;-60
2022/04/28 03:33:27;;;;;;;3.53;2.88;;;7.60;99.90;;;;;;5095252;28;20543;-60
2022/04/28 03:35:53;;;;;;;2.65;2.45;;;7.60;99.90;;;;;;5110999;28;20184;-60
2022/04/28 03:38:18;;;;;;;4.38;2.63;;;7.70;99.90;;;;;;5095333;28;20185;-60
2022/04/28 03:40:45;;;;;;;4.35;2.83;;;7.60;99.90;;;;;;5095527;28;20752;-60
2022/04/28 03:43:11;;;;;;;3.88;2.90;;;7.60;99.90;;;;;;5095303;28;20207;-60
2022/04/28 03:45:37;;;;;;;4.78;2.55;;;7.70;99.90;;;;;;5095217;28;20192;-60
2022/04/28 03:48:03;;;;;;;4.20;2.75;;;7.60;99.90;;;;;;5095186;28;20213;-60
2022/04/28 03:50:30;;;;;;;3.47;3.15;;;7.70;99.90;;;;;;5095274;28;20174;-60
2022/04/28 03:52:59;;;;;;;3.65;2.60;;;7.60;99.90;;;;;;5094546;28;20166;-60
2022/04/28 03:55:25;;;;;;;3.72;2.85;;;7.60;99.90;;;;;;5094818;28;20595;-60
2022/04/28 03:57:51;;;;;;;3.50;2.80;;;7.60;99.90;;;;;;5094991;28;20509;-60
2022/04/28 04:00:18;;;;;;;3.83;2.65;;;7.60;99.90;;;;;;5094878;28;20174;-60
2022/04/28 04:02:44;;;;;;;4.00;2.88;;;7.60;99.90;;;;;;5094845;28;20166;-60
2022/04/28 04:05:10;;;;;;;2.50;2.30;;;7.60;99.90;;;;;;5094527;28;20216;-60
2022/04/28 04:07:38;;;;;;;2.97;2.47;;;7.50;99.90;;;;;;5094534;28;20208;-60
2022/04/28 04:10:08;;;;;;;4.25;1.95;;;7.40;99.90;;;;;;5094497;28;20214;-60
2022/04/28 04:12:34;;;;;;;3.10;2.58;;;7.40;99.90;;;;;;5094760;28;20180;-60
2022/04/28 04:15:00;;;;;;;3.13;2.55;;;7.60;99.90;;;;;;5094732;28;20170;-60
2022/04/28 04:17:25;;;;;;;6.20;2.65;;;7.50;99.90;;;;;;5094192;28;20180;-60
2022/04/28 04:19:51;;;;;;;3.67;2.50;;;7.50;99.90;;;;;;5094403;28;20174;-60
2022/04/28 04:22:17;;;;;;;3.25;2.95;;;7.50;99.90;;;;;;5094735;28;20261;-60
2022/04/28 04:24:43;;;;;;;3.58;2.78;;;7.50;99.90;;;;;;5093395;28;20198;-60
2022/04/28 04:27:09;;;;;;;3.40;2.90;;;7.50;99.90;;;;;;5094442;28;20217;-60
2022/04/28 04:29:36;;;;;;;3.15;2.60;;;7.50;99.90;;;;;;5094380;28;20185;-60
2022/04/28 04:32:17;;;;;;;2.80;2.50;;;7.50;99.90;;;;;;5094244;28;20209;-60
2022/04/28 04:34:45;;;;;;;3.17;2.88;;;7.40;99.90;;;;;;5094091;28;20189;-60
2022/04/28 04:37:11;;;;;;;3.42;2.70;;;7.40;99.90;;;;;;5093945;28;20177;-59
2022/04/28 04:39:37;;;;;;;5.10;3.08;;;7.40;99.90;;;;;;5094266;28;20177;-60
2022/04/28 04:42:03;;;;;;;4.47;2.72;;;7.40;99.90;;;;;;5094321;28;20230;-60
2022/04/28 04:44:29;;;;;;;5.70;3.40;;;7.40;99.90;;;;;;5094385;28;20176;-60
2022/04/28 04:46:54;;;;;;;3.95;3.17;;;7.50;99.90;;;;;;5093931;28;20539;-60
2022/04/28 04:49:20;;;;;;;3.72;3.22;;;7.40;99.90;;;;;;5092893;28;20181;-60
2022/04/28 04:51:46;;;;;;;4.07;2.40;;;7.50;99.90;;;;;;5092843;28;20170;-60
2022/04/28 04:54:11;;;;;;;5.25;3.05;;;7.40;99.90;;;;;;5093591;28;20182;-60
2022/04/28 04:56:38;;;;;;;3.92;3.25;;;7.40;99.90;;;;;;5093895;28;20224;-60
2022/04/28 04:59:03;;;;;;;4.68;3.35;;;7.40;99.90;;;;;;5093840;28;20181;-60
2022/04/28 05:01:29;;;;;;;5.35;3.30;;;7.30;99.90;;;;;;5092596;28;20178;-59
2022/04/28 05:03:55;;;;;;;4.60;3.10;;;7.40;99.90;;;;;;5092295;28;20594;-59
2022/04/28 05:06:21;;;;;;;3.63;3.28;;;7.50;99.90;;;;;;5092509;28;20255;-59
2022/04/28 05:08:47;;;;;;;3.65;2.58;;;7.60;99.90;;;;;;5093751;28;20200;-59
2022/04/28 05:11:12;;;;;;;4.13;3.72;;;7.60;99.90;;;;;;5093782;28;20191;-60
2022/04/28 05:13:38;;;;;;;4.03;3.45;;;7.50;99.90;;;;;;5109455;28;20271;-60
2022/04/28 05:16:04;;;;;;;4.40;3.20;;;7.60;99.90;;;;;;5093582;28;20627;-59
2022/04/28 05:18:30;;;;;;;4.97;3.63;;;7.70;99.90;;;;;;5093710;28;20175;-59
2022/04/28 05:20:56;;;;;;;4.32;3.42;;;7.80;99.90;;;;;;5093371;28;20223;-59
2022/04/28 05:23:22;;;;;;;6.03;3.67;;;7.90;99.90;;;;;;5093589;28;20170;-59
2022/04/28 05:25:48;;;;;;;4.45;3.47;;;8.00;99.90;;;;;;5093595;28;20177;-59
2022/04/28 05:28:14;;;;;;;4.28;3.30;;;8.10;99.90;;;;;;5093202;28;20571;-59
2022/04/28 05:30:39;;;;;;;7.20;4.35;;;8.10;99.90;;;;;;5093403;28;20169;-59
2022/04/28 05:33:05;;;;;;;5.63;3.45;;;8.20;99.90;;;;;;5093327;28;20174;-60
2022/04/28 05:35:31;;;;;;;6.30;3.13;;;8.20;99.90;;;;;;5093527;28;20527;-59
2022/04/28 05:37:57;;;;;;;4.97;4.15;;;8.20;99.90;;;;;;5093430;28;20532;-59
2022/04/28 05:40:23;;;;;;;4.85;3.85;;;8.40;99.90;;;;;;5093355;28;20189;-59
2022/04/28 05:45:46;;;;;;;5.05;3.42;;;8.40;99.90;;;;;;5093490;28;20589;-59
2022/04/28 05:48:16;;;;;;;4.18;3.38;;;8.60;99.90;;;;;;5093314;28;20665;-59
2022/04/28 05:50:42;;;;;;;5.57;3.50;;;8.70;99.90;;;;;;5093064;28;20173;-59
2022/04/28 05:53:08;;;;;;;4.40;3.47;;;8.70;99.90;;;;;;5093228;28;20174;-59
2022/04/28 05:55:34;;;;;;;5.93;3.35;;;8.90;99.90;;;;;;5093281;28;20584;-59
2022/04/28 05:58:00;;;;;;;5.20;3.80;;;8.90;99.90;;;;;;5093192;28;20181;-59
2022/04/28 06:00:27;;;;;;;6.90;3.85;;;9.20;99.90;;;;;;5093172;28;20535;-59
2022/04/28 06:02:53;;;;;;;4.60;3.47;;;9.30;99.90;;;;;;5093262;28;20242;-59
2022/04/28 06:05:20;;;;;;;5.78;4.22;;;9.40;99.90;;;;;;5093057;28;20643;-59
2022/04/28 06:07:46;;;;;;;5.57;3.97;;;9.50;99.90;;;;;;5108716;28;20206;-60
2022/04/28 06:10:13;;;;;;;4.75;3.80;;;9.70;99.90;;;;;;5093086;28;20271;-60
2022/04/28 06:12:39;;;;;;;5.63;3.75;;;9.90;99.90;;;;;;5092908;28;20196;-60
2022/04/28 06:15:05;;;;;;;6.20;4.00;;;10.00;99.90;;;;;;5092915;28;20224;-60
2022/04/28 06:17:31;;;;;;;4.57;3.28;;;10.20;99.90;;;;;;5096145;28;20174;-60
2022/04/28 06:19:57;;;;;;;5.57;4.10;;;10.40;99.90;;;;;;5097183;28;20192;-60
2022/04/28 06:22:22;;;;;;;4.50;3.88;;;10.50;99.90;;;;;;5096864;28;20627;-60
2022/04/28 06:24:52;;;;;;;6.15;4.30;;;10.70;99.90;;;;;;5096713;28;20169;-60
2022/04/28 06:27:18;;;;;;;5.78;4.10;;;10.80;99.90;;;;;;5096482;28;20202;-60
2022/04/28 06:29:44;;;;;;;4.40;3.45;;;11.00;99.90;;;;;;5096557;28;20205;-60
2022/04/28 06:32:10;;;;;;;4.80;3.88;;;11.00;99.90;;;;;;5096626;28;20194;-59
2022/04/28 06:34:36;;;;;;;5.30;3.92;;;11.00;99.90;;;;;;5096780;28;20209;-59
2022/04/28 06:37:02;;;;;;;6.28;3.28;;;11.30;99.90;;;;;;5096618;28;20228;-60
2022/04/28 06:39:27;;;;;;;5.47;3.40;;;11.30;99.90;;;;;;5096406;28;20174;-60
2022/04/28 06:41:53;;;;;;;7.25;4.40;;;11.30;99.90;;;;;;5096277;28;20227;-60
2022/04/28 06:44:19;;;;;;;4.60;3.58;;;11.20;99.90;;;;;;5096209;28;20635;-60
2022/04/28 06:46:44;;;;;;;4.95;3.65;;;11.30;99.90;;;;;;5096420;28;20194;-60
2022/04/28 06:49:10;;;;;;;4.30;3.53;;;11.10;99.90;;;;;;5096303;28;20178;-60
2022/04/28 06:51:36;;;;;;;3.80;3.35;;;11.40;99.90;;;;;;5096355;28;20523;-60
2022/04/28 06:54:02;;;;;;;6.88;4.10;;;11.50;99.90;;;;;;5096161;28;20631;-60
2022/04/28 06:56:29;;;;;;;4.63;4.07;;;11.60;99.90;;;;;;5095996;28;20666;-60
2022/04/28 06:58:55;;;;;;;4.95;3.75;;;11.60;99.90;;;;;;5096078;28;20178;-59
2022/04/28 07:01:20;;;;;;;5.00;4.15;;;11.60;99.90;;;;;;5111789;28;20193;-60
2022/04/28 07:03:46;;;;;;;4.85;4.07;;;11.80;99.90;;;;;;5095795;28;20298;-59
2022/04/28 07:06:11;;;;;;;5.88;3.80;;;11.80;99.90;;;;;;5096218;28;20178;-60
2022/04/28 07:08:37;;;;;;;6.10;3.67;;;11.90;99.90;;;;;;5095747;28;20214;-60
2022/04/28 07:11:03;;;;;;;6.13;4.32;;;12.00;99.90;;;;;;5095768;28;20566;-60
2022/04/28 07:13:29;;;;;;;5.82;4.00;;;12.10;99.90;;;;;;5095700;28;20696;-60
2022/04/28 07:15:55;;;;;;;6.20;4.38;;;12.00;99.90;;;;;;5095813;28;20631;-60
2022/04/28 07:18:20;;;;;;;6.95;4.10;;;12.10;99.90;;;;;;5095944;28;20178;-60
2022/04/28 07:20:46;;;;;;;5.00;3.88;;;12.20;99.90;;;;;;5095738;28;20189;-60
2022/04/28 07:23:12;;;;;;;6.60;4.55;;;12.50;99.90;;;;;;5095546;28;20255;-60
2022/04/28 07:25:38;;;;;;;5.75;3.90;;;12.50;99.90;;;;;;5095486;28;20166;-60
2022/04/28 07:28:04;;;;;;;4.82;3.88;;;12.70;99.90;;;;;;5094528;28;20205;-59
2022/04/28 07:30:30;;;;;;;7.32;4.30;;;12.80;99.90;;;;;;5094281;28;20527;-60
2022/04/28 07:32:56;;;;;;;5.90;4.22;;;12.90;99.90;;;;;;5111221;28;20539;-59
2022/04/28 07:35:24;;;;;;;6.35;4.03;;;12.90;99.90;;;;;;5095431;28;20177;-60
2022/04/28 07:37:50;;;;;;;6.28;4.38;;;12.70;99.90;;;;;;5095343;28;20276;-60
2022/04/28 07:40:17;;;;;;;5.28;3.78;;;12.60;99.90;;;;;;5095231;28;20170;-60
2022/04/28 07:42:42;;;;;;;6.00;3.83;;;12.90;99.90;;;;;;5095564;28;20255;-60
2022/04/28 07:45:08;;;;;;;6.07;3.90;;;12.90;99.90;;;;;;5095607;28;20197;-60
2022/04/28 07:47:34;;;;;;;4.07;3.38;;;12.80;99.90;;;;;;5095195;28;20205;-60
2022/04/28 07:49:59;;;;;;;4.85;4.03;;;13.20;99.90;;;;;;5095117;28;20679;-60
2022/04/28 07:52:25;;;;;;;4.28;3.80;;;13.20;99.90;;;;;;5094933;28;20185;-60
2022/04/28 07:54:51;;;;;;;5.97;4.25;;;13.20;99.90;;;;;;5095021;28;20235;-60
2022/04/28 07:57:17;;;;;;;8.68;4.15;;;13.40;99.90;;;;;;5095136;28;20170;-60
2022/04/28 07:59:43;;;;;;;5.53;4.32;;;13.50;99.90;;;;;;5095230;28;20169;-60
2022/04/28 08:02:11;;;;;;;6.10;3.72;;;13.50;99.90;;;;;;5094933;28;20235;-60
2022/04/28 08:04:37;;;;;;;5.28;3.75;;;13.40;99.90;;;;;;5094858;28;20189;-60
2022/04/28 08:07:03;;;;;;;4.47;3.50;;;13.60;99.90;;;;;;5094650;28;20236;-60
2022/04/28 08:09:30;;;;;;;5.32;3.95;;;13.80;99.90;;;;;;5094631;28;20209;-60
2022/04/28 08:11:55;;;;;;;5.90;3.83;;;14.00;99.90;;;;;;5094527;28;20205;-60
2022/04/28 08:14:23;;;;;;;7.95;4.13;;;14.20;99.90;;;;;;5093511;28;20674;-60
2022/04/28 08:16:49;;;;;;;5.47;3.65;;;14.00;99.90;;;;;;5093267;28;20578;-60
2022/04/28 08:19:15;;;;;;;6.50;4.35;;;14.00;99.90;;;;;;5094524;28;20257;-60
2022/04/28 08:21:41;;;;;;;6.03;3.90;;;13.90;99.90;;;;;;5094564;28;20257;-60
2022/04/28 08:24:07;;;;;;;4.85;3.42;;;14.00;99.90;;;;;;5094261;28;20670;-60
2022/04/28 08:26:32;;;;;;;5.63;3.75;;;14.20;99.90;;;;;;5094433;28;20197;-60
2022/04/28 08:28:58;;;;;;;4.45;3.67;;;14.30;99.90;;;;;;5094424;28;20173;-60
2022/04/28 08:31:23;;;;;;;5.00;3.80;;;14.20;99.90;;;;;;5094469;28;20195;-60
2022/04/28 08:33:49;;;;;;;5.75;3.78;;;14.40;99.90;;;;;;5094309;28;20177;-60
2022/04/28 08:36:15;;;;;;;3.95;3.17;;;14.40;99.40;;;;;;5094241;28;20535;-60
2022/04/28 08:38:42;;;;;;;6.22;4.30;;;14.20;99.10;;;;;;5093984;28;20177;-60
2022/04/28 08:41:11;;;;;;;4.88;4.07;;;14.20;99.90;;;;;;5094572;28;20221;-60
2022/04/28 08:43:37;;;;;;;6.38;4.13;;;14.40;99.80;;;;;;5109884;28;20577;-60
2022/04/28 08:48:52;;;;;;;5.70;3.65;;;14.60;99.20;;;;;;5094353;28;20262;-60
2022/04/28 08:51:24;;;;;;;4.00;3.38;;;14.50;98.40;;;;;;5093993;28;20165;-60
2022/04/28 08:53:51;;;;;;;5.43;3.65;;;14.50;99.30;;;;;;5094114;28;20174;-60
2022/04/28 08:56:21;;;;;;;5.07;3.58;;;14.80;98.60;;;;;;5093827;28;20329;-60
2022/04/28 08:58:47;;;;;;;5.53;3.47;;;14.70;98.40;;;;;;5094132;28;20209;-60
2022/04/28 09:01:14;;;;;;;5.28;3.80;;;14.70;98.60;;;;;;5093890;28;20181;-60
2022/04/28 09:03:41;;;;;;;4.80;3.35;;;14.90;98.30;;;;;;5093451;28;20192;-60
2022/04/28 09:06:36;;;;;;;6.63;3.70;;;15.00;97.80;;;;;;5093652;28;20185;-60
2022/04/28 09:09:09;;;;;;;5.82;3.83;;;14.90;96.30;;;;;;5080811;28;20194;-60
2022/04/28 09:11:37;;;;;;;4.90;3.65;;;15.00;96.90;;;;;;5093800;28;20173;-59
2022/04/28 09:14:14;;;;;;;4.10;3.60;;;14.90;97.70;;;;;;5092313;28;20231;-60
2022/04/28 09:16:59;;;;;;;5.88;3.72;;;15.10;97.70;;;;;;5093776;28;20173;-60
2022/04/28 09:19:32;;;;;;;4.85;3.63;;;15.40;98.50;;;;;;5092418;28;20261;-60
2022/04/28 09:22:01;;;;;;;4.03;3.60;;;15.70;96.60;;;;;;5093604;28;20178;-60
2022/04/28 09:24:27;;;;;;;5.45;3.78;;;15.90;97.00;;;;;;5093426;28;20249;-60
2022/04/28 09:26:54;;;;;;;5.15;3.67;;;15.90;96.80;;;;;;5093189;28;20573;-60
2022/04/28 09:29:22;;;;;;;4.53;3.60;;;16.00;96.70;;;;;;5093587;28;20181;-60
2022/04/28 09:31:50;;;;;;;4.18;3.72;;;16.10;96.20;;;;;;5093436;28;20174;-60
2022/04/28 09:34:18;;;;;;;5.15;3.90;;;16.00;94.90;;;;;;5093527;28;20223;-60
2022/04/28 09:36:46;;;;;;;6.07;4.13;;;16.20;96.00;;;;;;5093349;28;20184;-60
2022/04/28 09:44:49;;;;;;;5.07;3.60;;;15.90;94.60;;;;;;5093266;28;20219;-60
2022/04/28 09:47:16;;;;;;;6.28;4.10;;;15.90;94.60;;;;;;5093122;28;20671;-60
2022/04/28 09:49:41;;;;;;;5.35;3.58;;;16.20;96.30;;;;;;5093118;28;20253;-60
2022/04/28 09:52:09;;;;;;;5.38;4.57;;;16.30;96.40;;;;;;5096122;28;20216;-60
2022/04/28 09:54:36;;;;;;;5.57;4.13;;;16.30;94.10;;;;;;5097442;28;20204;-60
2022/04/28 09:57:04;;;;;;;5.70;4.45;;;16.20;95.40;;;;;;5097511;28;20177;-60
2022/04/28 09:59:30;;;;;;;7.72;4.28;;;16.20;94.80;;;;;;5097428;28;20170;-60
2022/04/28 10:01:58;;;;;;;4.88;4.05;;;16.30;94.30;;;;;;5097261;28;20171;-60
2022/04/28 10:04:24;;;;;;;6.55;4.65;;;16.40;95.30;;;;;;5096956;28;20181;-60
2022/04/28 10:06:50;;;;;;;6.63;4.30;;;16.30;95.30;;;;;;5097153;28;20209;-61
2022/04/28 10:09:17;;;;;;;5.07;4.28;;;16.30;96.10;;;;;;5097102;28;20218;-60
2022/04/28 10:11:44;;;;;;;5.55;4.43;;;16.50;95.40;;;;;;5095922;28;20177;-60
2022/04/28 10:14:12;;;;;;;5.60;3.97;;;16.50;96.10;;;;;;5096863;28;20257;-60
2022/04/28 10:16:41;;;;;;;5.45;4.10;;;16.40;93.50;;;;;;5096887;28;20178;-60
2022/04/28 10:19:15;;;;;;;6.05;4.22;;;16.50;96.20;;;;;;5097001;28;20639;-60
2022/04/28 10:22:00;;;;;;;5.82;4.28;;;16.60;94.40;;;;;;5096857;28;20169;-60
2022/04/28 10:32:55;;;;;;;5.80;4.53;;;16.90;93.40;;;;;;5096828;28;20188;-60
2022/04/28 10:35:49;;;;;;;6.45;3.88;;;16.80;94.30;;;;;;5096753;28;20496;-60
2022/04/28 10:38:30;;;;;;;6.10;4.60;;;16.90;94.50;;;;;;5096680;28;20235;-60
2022/04/28 10:41:06;;;;;;;6.75;4.80;;;17.00;94.00;;;;;;5096730;28;20173;-60
2022/04/28 10:43:32;;;;;;;5.95;4.10;;;17.00;93.90;;;;;;5096469;28;20260;-60
2022/04/28 10:46:01;;;;;;;5.90;4.72;;;17.10;93.40;;;;;;5096485;28;20212;-60
2022/04/28 10:48:30;;;;;;;5.90;4.47;;;17.20;93.60;;;;;;5096271;28;20241;-60
2022/04/28 10:51:10;;;;;;;5.68;4.20;;;17.30;92.60;;;;;;5096290;28;20182;-60
2022/04/28 10:53:54;;;;;;;5.53;4.53;;;17.50;94.80;;;;;;5096424;28;20215;-61
2022/04/28 10:56:20;;;;;;;6.22;4.68;;;17.70;92.50;;;;;;5096095;28;20219;-60
2022/04/28 10:58:45;;;;;;;6.97;4.95;;;17.60;92.40;;;;;;5095087;28;20631;-60
2022/04/28 11:01:29;;;;;;;7.25;4.55;;;17.60;92.10;;;;;;5096164;28;20516;-61
2022/04/28 11:03:57;;;;;;;5.40;4.18;;;17.60;92.00;;;;;;5094939;28;20170;-60
2022/04/28 11:06:38;;;;;;;5.93;3.92;;;17.40;91.90;;;;;;5095939;28;20272;-60
2022/04/28 11:09:06;;;;;;;6.25;4.80;;;17.60;93.60;;;;;;5096059;28;20185;-61
2022/04/28 11:11:43;;;;;;;6.80;4.50;;;17.60;92.10;;;;;;5096018;28;20174;-61
2022/04/28 11:14:09;;;;;;;6.88;4.80;;;17.70;91.90;;;;;;5096074;28;20161;-60
2022/04/28 11:16:35;;;;;;;5.95;4.80;;;17.50;91.40;;;;;;5095793;28;20177;-60
2022/04/28 11:19:03;;;;;;;6.25;4.97;;;17.70;92.80;;;;;;5095608;28;20174;-60
2022/04/28 11:21:28;;;;;;;5.68;4.82;;;17.80;91.90;;;;;;5095585;28;20200;-61
2022/04/28 11:23:57;;;;;;;6.40;4.78;;;17.90;91.60;;;;;;5095753;28;20693;-61
2022/04/28 11:26:27;;;;;;;8.45;5.47;;;18.20;92.10;;;;;;5095631;28;20185;-60
2022/04/28 11:28:52;;;;;;;6.53;4.35;;;18.30;91.00;;;;;;5095566;28;20316;-61
2022/04/28 11:31:19;;;;;;;7.50;4.97;;;18.10;90.30;;;;;;5095436;28;20216;-61
2022/04/28 11:33:50;;;;;;;5.85;4.50;;;17.80;90.20;;;;;;5095168;28;20523;-60
2022/04/28 11:36:27;;;;;;;7.00;5.13;;;18.00;91.60;;;;;;5095576;28;20174;-61
2022/04/28 11:38:56;;;;;;;8.48;4.85;;;18.20;90.40;;;;;;5095445;28;20482;-61
2022/04/28 11:41:41;;;;;;;6.93;5.18;;;18.30;87.70;;;;;;5095093;28;20166;-61
2022/04/28 11:44:13;;;;;;;7.28;4.82;;;18.20;87.90;;;;;;5095165;28;20752;-61
2022/04/28 11:46:45;;;;;;;8.18;5.55;;;18.20;89.10;;;;;;5095285;28;20651;-61
2022/04/28 11:49:11;;;;;;;6.32;4.63;;;18.30;89.90;;;;;;5095156;28;20240;-61
2022/04/28 11:51:37;;;;;;;6.97;4.97;;;18.40;90.60;;;;;;5094969;28;20535;-61
2022/04/28 11:54:19;;;;;;;6.70;5.25;;;18.40;88.50;;;;;;5095051;28;20253;-61
2022/04/28 11:56:45;;;;;;;6.65;5.07;;;18.40;90.10;;;;;;5094929;28;20162;-61
2022/04/28 11:59:11;;;;;;;7.70;5.63;;;18.20;87.90;;;;;;5095021;28;20627;-61
2022/04/28 12:01:39;;;;;;;6.50;5.40;;;18.30;88.90;;;;;;5095026;28;20174;-61
2022/04/28 12:04:05;;;;;;;6.85;4.50;;;18.40;85.80;;;;;;5094620;28;20236;-61
2022/04/28 12:06:30;;;;;;;7.82;5.20;;;18.60;87.30;;;;;;5094703;28;20175;-61
2022/04/28 12:14:30;;;;;;;7.35;4.93;;;18.50;84.40;;;;;;5094515;28;20185;-61
2022/04/28 12:19:51;;;;;;;8.00;4.65;;;18.40;84.10;;;;;;5094537;28;20270;-61
2022/04/28 12:22:39;;;;;;;7.70;4.97;;;18.50;85.70;;;;;;5094509;28;20169;-61
2022/04/28 12:25:10;;;;;;;5.97;4.88;;;18.60;86.40;;;;;;5094484;28;20170;-61
2022/04/28 12:27:46;;;;;;;7.28;5.15;;;18.80;84.80;;;;;;5094323;28;20627;-60
2022/04/28 12:30:13;;;;;;;7.63;5.80;;;19.00;85.50;;;;;;5094169;28;20223;-61
2022/04/28 12:32:46;;;;;;;7.78;5.55;;;19.00;84.70;;;;;;5094431;28;20184;-61
2022/04/28 12:35:20;;;;;;;7.70;5.68;;;18.90;82.70;;;;;;5093293;28;20599;-61
2022/04/28 12:37:46;;;;;;;8.43;5.78;;;18.90;83.10;;;;;;5094205;28;20589;-61
2022/04/28 12:40:20;;;;;;;5.25;4.50;;;18.60;82.80;;;;;;5094177;28;20173;-61
2022/04/28 12:42:48;;;;;;;6.85;5.00;;;18.90;86.30;;;;;;5094336;28;20176;-61
2022/04/28 12:45:16;;;;;;;8.35;5.90;;;19.00;85.40;;;;;;5094075;28;20166;-60
2022/04/28 12:47:43;;;;;;;6.13;5.32;;;19.30;85.50;;;;;;5093839;28;20201;-61
2022/04/28 12:50:23;;;;;;;8.52;5.38;;;19.30;85.80;;;;;;5092612;28;20571;-61
2022/04/28 12:52:51;;;;;;;8.80;6.20;;;19.20;83.70;;;;;;5093792;28;20165;-61
2022/04/28 12:55:21;;;;;;;8.10;5.28;;;19.10;84.00;;;;;;5094078;28;20201;-61
2022/04/28 12:57:48;;;;;;;6.28;5.00;;;19.10;84.40;;;;;;5093977;28;20178;-60
2022/04/28 13:00:15;;;;;;;8.63;5.72;;;18.90;84.80;;;;;;5093785;28;20174;-61
2022/04/28 13:02:50;;;;;;;8.50;6.30;;;19.10;85.40;;;;;;5092701;28;20197;-60
2022/04/28 13:05:18;;;;;;;7.80;5.55;;;18.90;81.40;;;;;;5093800;28;20223;-60
2022/04/28 13:07:44;;;;;;;8.13;5.82;;;18.80;83.80;;;;;;5093711;28;20205;-61
2022/04/28 13:10:16;;;;;;;6.93;5.28;;;18.80;85.00;;;;;;5093552;28;20201;-61
2022/04/28 13:12:42;;;;;;;7.85;5.35;;;18.90;85.30;;;;;;5093936;28;20218;-61
2022/04/28 13:15:08;;;;;;;7.65;5.50;;;19.00;84.50;;;;;;5092378;28;20170;-60
2022/04/28 13:17:36;;;;;;;7.22;6.00;;;19.30;83.30;;;;;;5092382;28;20255;-61
2022/04/28 13:20:04;;;;;;;7.70;6.00;;;19.30;84.30;;;;;;5093401;28;20558;-61
2022/04/28 13:22:29;;;;;;;7.30;5.85;;;19.20;82.70;;;;;;5092257;28;20173;-61
2022/04/28 13:24:55;;;;;;;14.30;5.75;;;19.00;82.00;;;;;;5093275;28;20178;-60
2022/04/28 13:27:22;;;;;;;7.30;6.07;;;18.90;83.50;;;;;;5092879;28;20255;-60
2022/04/28 13:29:47;;;;;;;8.82;6.20;;;19.00;83.20;;;;;;5093384;28;20235;-60
2022/04/28 13:32:13;;;;;;;6.55;5.55;;;18.80;80.10;;;;;;5093384;28;20600;-60